Time;durP1;ratioP1;P1;durP2;ratioP2;P2;SDS_P1;SDS_P2;PMS_P1;PMS_P2;Temp;Humidity;BMP_temperature;BMP_pressure;BME280_temperature;BME280_humidity;BME280_pressure;Samples;Min_cycle;Max_cycle;Signal;HPM_P1;HPM_P2
2022/03/26 10:44:06;;;;;;;23.02;14.75;;;;;;;;;;5092320;27;1988446;-86
2022/03/26 10:46:31;;;;;;;24.02;15.00;;;;;;;;;;4810084;28;6243492;-86
2022/03/26 10:48:56;;;;;;;27.10;15.05;;;;;;;;;;4686679;28;2724428;-86
2022/03/26 10:51:25;;;;;;;23.50;14.25;;;;;;;;;;4916805;28;1877916;-86
2022/03/26 10:53:54;;;;;;;25.48;14.60;;;;;;;;;;5096314;28;20029;-86
2022/03/26 10:56:32;;;;;;;26.05;14.40;;;;;;;;;;5079184;28;20036;-87
2022/03/26 10:59:02;;;;;;;26.92;14.15;;;;;;;;;;5096191;28;20028;-88
2022/03/26 11:01:33;;;;;;;28.65;14.88;;;;;;;;;;5080547;28;20042;-87
2022/03/26 11:07:25;;;;;;;27.90;13.93;;;;;;;;;;5028944;28;20100;-88
2022/03/26 11:09:50;;;;;;;24.27;13.70;;;;;;;;;;5099662;28;20043;-88
2022/03/26 11:12:17;;;;;;;22.30;13.57;;;;;;;;;;5096764;28;20043;-88
2022/03/26 11:14:42;;;;;;;21.85;13.43;;;;;;;;;;5099300;28;20028;-88
2022/03/26 11:17:07;;;;;;;23.35;13.02;;;;;;;;;;5098443;28;20033;-88
2022/03/26 11:19:33;;;;;;;30.70;14.93;;;;;;;;;;5099492;28;20076;-88
2022/03/26 11:21:58;;;;;;;24.52;14.60;;;;;;;;;;5099246;28;20040;-89
2022/03/26 11:24:26;;;;;;;28.77;14.75;;;;;;;;;;5098675;28;20028;-88
2022/03/26 11:26:51;;;;;;;28.83;14.15;;;;;;;;;;5099762;28;20035;-89
2022/03/26 11:29:16;;;;;;;22.55;13.95;;;;;;;;;;5101060;28;20040;-87
2022/03/26 11:31:42;;;;;;;31.90;14.75;;;;;;;;;;5098423;28;20129;-88
2022/03/26 11:34:07;;;;;;;25.83;15.30;;;;;;;;;;5099267;28;20067;-88
2022/03/26 11:36:32;;;;;;;26.88;14.88;;;;;;;;;;5098018;28;20074;-88
2022/03/26 11:38:57;;;;;;;28.38;15.88;;;;;;;;;;5099593;28;20039;-88
2022/03/26 11:41:23;;;;;;;25.48;14.93;;;;;;;;;;5097401;28;20078;-88
2022/03/26 11:43:49;;;;;;;22.25;13.90;;;;;;;;;;5094797;28;20043;-85
2022/03/26 11:51:42;;;;;;;27.33;16.15;;;;;;;;;;5051804;28;20050;-85
2022/03/26 11:54:07;;;;;;;27.05;16.48;;;;;;;;;;5063335;28;20041;-83
2022/03/26 11:56:32;;;;;;;27.92;17.02;;;;;;;;;;5058565;28;20629;-83
2022/03/26 11:58:58;;;;;;;31.23;16.80;;;;;;;;;;5038910;28;20032;-85
2022/03/26 12:01:23;;;;;;;31.30;15.85;;;;;;;;;;5057138;28;20488;-86
2022/03/26 12:03:48;;;;;;;31.48;17.40;;;;;;;;;;5023131;28;20048;-83
2022/03/26 12:08:58;;;;;;;26.92;17.50;;;;;;;;;;5057839;28;20036;-85
2022/03/26 12:11:23;;;;;;;30.20;17.73;;;;;;;;;;5039940;28;20492;-85
2022/03/26 12:13:48;;;;;;;31.02;17.88;;;;;;;;;;5040687;28;20036;-82
2022/03/26 12:16:13;;;;;;;30.98;18.45;;;;;;;;;;5056867;28;20052;-83
2022/03/26 12:18:39;;;;;;;29.65;17.63;;;;;;;;;;5055650;28;20033;-84
2022/03/26 12:21:04;;;;;;;30.55;17.77;;;;;;;;;;5037816;28;20182;-84
2022/03/26 12:23:29;;;;;;;35.30;16.83;;;;;;;;;;5055517;28;20028;-85
2022/03/26 12:25:55;;;;;;;36.50;17.10;;;;;;;;;;5021020;28;20037;-84
2022/03/26 12:28:20;;;;;;;29.00;16.60;;;;;;;;;;5037844;28;20037;-82
2022/03/26 12:30:45;;;;;;;29.15;17.75;;;;;;;;;;5037612;28;20033;-85
2022/03/26 13:01:11;;;;;;;31.48;16.08;;;;;;;;;;5133950;27;20247;-84
2022/03/26 13:03:36;;;;;;;32.05;17.50;;;;;;;;;;5132139;28;20088;-84
2022/03/26 13:06:01;;;;;;;29.00;17.00;;;;;;;;;;5131322;28;20035;-83
2022/03/26 13:08:27;;;;;;;30.70;17.23;;;;;;;;;;5134443;27;20016;-83
2022/03/26 13:10:53;;;;;;;31.33;18.02;;;;;;;;;;5134284;27;20276;-81
2022/03/26 13:13:18;;;;;;;30.13;18.65;;;;;;;;;;5134341;27;20057;-84
2022/03/26 13:15:43;;;;;;;31.88;17.35;;;;;;;;;;5133906;27;20380;-83
2022/03/26 13:18:09;;;;;;;32.47;18.10;;;;;;;;;;5135302;27;20059;-82
2022/03/26 13:20:35;;;;;;;30.45;17.15;;;;;;;;;;5135692;27;20047;-81
2022/03/26 13:23:00;;;;;;;30.90;17.85;;;;;;;;;;5136185;27;20035;-83
2022/03/26 13:25:25;;;;;;;28.50;17.30;;;;;;;;;;5134408;28;20691;-83
2022/03/26 13:27:50;;;;;;;28.23;17.25;;;;;;;;;;5135260;27;20063;-82
2022/03/26 13:30:16;;;;;;;30.80;17.15;;;;;;;;;;5134527;27;20032;-82
2022/03/26 13:32:41;;;;;;;29.73;18.25;;;;;;;;;;5134775;27;20048;-82
2022/03/26 13:35:06;;;;;;;28.67;18.15;;;;;;;;;;5134521;27;20039;-82
2022/03/26 13:37:31;;;;;;;29.52;17.27;;;;;;;;;;5133267;27;20464;-83
2022/03/26 13:39:57;;;;;;;32.55;17.85;;;;;;;;;;5134099;27;20027;-81
2022/03/26 13:42:22;;;;;;;31.52;17.85;;;;;;;;;;5134675;27;20132;-83
2022/03/26 13:44:47;;;;;;;28.75;17.30;;;;;;;;;;5133360;27;20077;-83
2022/03/26 13:47:12;;;;;;;28.95;17.52;;;;;;;;;;5134133;27;20108;-83
2022/03/26 13:49:38;;;;;;;32.80;16.87;;;;;;;;;;5134042;27;20020;-83
2022/03/26 13:52:03;;;;;;;28.90;17.27;;;;;;;;;;5134155;27;20813;-83
2022/03/26 13:54:28;;;;;;;33.70;17.90;;;;;;;;;;5115250;28;20039;-83
2022/03/26 13:56:53;;;;;;;30.60;17.33;;;;;;;;;;5132751;28;20031;-83
2022/03/26 13:59:19;;;;;;;29.63;17.15;;;;;;;;;;5133854;27;20555;-83
2022/03/26 14:01:44;;;;;;;27.17;16.45;;;;;;;;;;5132805;28;20036;-82
2022/03/26 14:04:09;;;;;;;28.80;16.55;;;;;;;;;;5134393;27;20030;-83
2022/03/26 14:06:35;;;;;;;32.80;18.30;;;;;;;;;;5134419;27;20108;-83
2022/03/26 14:09:01;;;;;;;31.13;17.60;;;;;;;;;;5134389;27;20110;-83
2022/03/26 14:11:27;;;;;;;30.05;18.13;;;;;;;;;;5126514;27;20036;-83
2022/03/26 14:13:52;;;;;;;31.45;17.17;;;;;;;;;;5119490;28;20479;-83
2022/03/26 14:16:18;;;;;;;31.45;18.70;;;;;;;;;;5120711;28;20035;-83
2022/03/26 14:18:43;;;;;;;25.75;17.00;;;;;;;;;;5118754;28;20028;-83
2022/03/26 14:21:09;;;;;;;32.28;17.75;;;;;;;;;;5118133;28;20395;-84
2022/03/26 14:23:34;;;;;;;29.08;17.60;;;;;;;;;;5117107;28;20039;-82
2022/03/26 14:25:59;;;;;;;32.55;17.15;;;;;;;;;;5115193;28;20376;-82
2022/03/26 14:28:24;;;;;;;26.60;16.10;;;;;;;;;;5116568;28;20067;-83
2022/03/26 14:30:50;;;;;;;25.83;16.27;;;;;;;;;;5124353;28;20019;-83
2022/03/26 14:33:15;;;;;;;25.95;16.90;;;;;;;;;;5118155;28;20073;-83
2022/03/26 14:35:41;;;;;;;28.70;16.98;;;;;;;;;;5117304;28;20035;-83
2022/03/26 14:38:06;;;;;;;28.20;16.70;;;;;;;;;;5118567;28;20391;-82
2022/03/26 14:40:32;;;;;;;28.83;16.23;;;;;;;;;;5118387;28;20304;-84
2022/03/26 14:42:57;;;;;;;32.60;17.10;;;;;;;;;;5118349;28;20091;-82
2022/03/26 14:45:23;;;;;;;28.85;16.42;;;;;;;;;;5117065;28;20069;-82
2022/03/26 14:47:48;;;;;;;27.52;17.02;;;;;;;;;;5117184;28;20035;-83
2022/03/26 14:50:13;;;;;;;25.90;16.65;;;;;;;;;;5100071;28;20031;-83
2022/03/26 14:52:38;;;;;;;28.80;16.85;;;;;;;;;;5117066;28;20027;-82
2022/03/26 14:55:04;;;;;;;26.63;15.73;;;;;;;;;;5100115;28;20115;-83
2022/03/26 14:57:29;;;;;;;28.30;16.35;;;;;;;;;;5118436;28;20432;-82
2022/03/26 14:59:54;;;;;;;29.50;16.23;;;;;;;;;;5116588;28;20047;-82
2022/03/26 15:02:19;;;;;;;27.50;15.60;;;;;;;;;;5116942;28;20031;-83
2022/03/26 15:04:45;;;;;;;28.88;16.42;;;;;;;;;;5117960;28;20032;-83
2022/03/26 15:07:10;;;;;;;25.98;16.23;;;;;;;;;;5116510;28;20031;-81
2022/03/26 15:09:35;;;;;;;29.23;15.85;;;;;;;;;;5116534;28;20108;-81
2022/03/26 15:12:00;;;;;;;29.92;16.92;;;;;;;;;;5115719;28;20059;-83
2022/03/26 15:14:26;;;;;;;27.77;16.55;;;;;;;;;;5116086;28;20031;-82
2022/03/26 15:16:51;;;;;;;26.77;16.20;;;;;;;;;;5117732;28;20535;-80
2022/03/26 15:19:16;;;;;;;31.33;16.17;;;;;;;;;;5118102;28;20036;-80
2022/03/26 15:21:41;;;;;;;34.60;16.65;;;;;;;;;;5118923;28;20376;-82
2022/03/26 15:24:07;;;;;;;27.98;16.65;;;;;;;;;;5120736;28;20023;-82
2022/03/26 15:26:32;;;;;;;28.15;16.30;;;;;;;;;;5116647;27;20035;-82
2022/03/26 15:28:57;;;;;;;28.92;17.58;;;;;;;;;;5098756;28;20028;-84
2022/03/26 15:31:22;;;;;;;31.40;17.08;;;;;;;;;;5115611;28;20039;-84
2022/03/26 15:33:50;;;;;;;36.33;16.80;;;;;;;;;;5117166;28;20114;-82
2022/03/26 15:36:15;;;;;;;30.35;16.08;;;;;;;;;;5116622;28;20035;-82
2022/03/26 15:38:40;;;;;;;30.80;16.00;;;;;;;;;;5115485;28;20122;-81
2022/03/26 15:41:06;;;;;;;30.17;15.93;;;;;;;;;;5116652;28;20390;-82
2022/03/26 15:43:31;;;;;;;30.98;17.23;;;;;;;;;;5117151;28;20065;-82
2022/03/26 15:45:56;;;;;;;33.28;16.02;;;;;;;;;;5116839;28;20031;-81
2022/03/26 15:48:21;;;;;;;29.08;16.33;;;;;;;;;;5115156;28;20035;-82
2022/03/26 15:50:47;;;;;;;29.08;16.42;;;;;;;;;;5115304;28;20478;-81
2022/03/26 15:53:12;;;;;;;30.05;16.88;;;;;;;;;;5114685;28;20077;-82
2022/03/26 15:55:37;;;;;;;26.20;16.05;;;;;;;;;;5115750;28;20083;-81
2022/03/26 15:58:03;;;;;;;28.40;17.02;;;;;;;;;;5115430;27;20035;-83
2022/03/26 16:00:28;;;;;;;27.58;15.68;;;;;;;;;;5116972;28;20086;-83
2022/03/26 16:02:54;;;;;;;38.65;15.68;;;;;;;;;;5116705;28;20124;-83
2022/03/26 16:05:19;;;;;;;26.17;15.77;;;;;;;;;;5118031;28;20064;-83
2022/03/26 16:07:44;;;;;;;26.77;16.27;;;;;;;;;;5118428;27;20131;-83
2022/03/26 16:10:10;;;;;;;31.88;15.40;;;;;;;;;;5118706;27;20036;-83
2022/03/26 16:12:35;;;;;;;29.77;16.33;;;;;;;;;;5118535;28;20030;-83
2022/03/26 16:15:00;;;;;;;26.70;15.13;;;;;;;;;;5122142;28;20442;-81
2022/03/26 16:17:25;;;;;;;27.00;14.93;;;;;;;;;;5124730;28;20042;-81
2022/03/26 16:19:51;;;;;;;26.63;15.27;;;;;;;;;;5122851;28;20122;-80
2022/03/26 16:22:17;;;;;;;30.23;15.60;;;;;;;;;;5118101;28;20483;-83
2022/03/26 16:24:45;;;;;;;24.90;15.38;;;;;;;;;;5116258;28;20153;-82
2022/03/26 16:27:11;;;;;;;28.33;15.20;;;;;;;;;;5115774;28;20106;-83
2022/03/26 16:29:36;;;;;;;32.40;15.35;;;;;;;;;;5116082;28;20059;-83
2022/03/26 16:32:02;;;;;;;28.50;14.75;;;;;;;;;;5115013;28;20423;-82
2022/03/26 16:34:27;;;;;;;25.63;15.00;;;;;;;;;;5115704;28;20044;-83
2022/03/26 16:36:52;;;;;;;27.83;15.20;;;;;;;;;;5114977;28;20483;-82
2022/03/26 16:39:17;;;;;;;24.60;14.88;;;;;;;;;;5116053;28;20027;-83
2022/03/26 16:41:43;;;;;;;26.77;15.05;;;;;;;;;;5116100;28;20050;-83
2022/03/26 16:44:08;;;;;;;27.52;15.63;;;;;;;;;;5116265;28;20168;-83
2022/03/26 16:46:33;;;;;;;27.42;15.98;;;;;;;;;;5116394;27;20032;-82
2022/03/26 16:48:59;;;;;;;27.08;14.80;;;;;;;;;;5115601;28;20032;-82
2022/03/26 16:51:24;;;;;;;28.40;14.55;;;;;;;;;;5116201;28;20051;-82
2022/03/26 16:53:50;;;;;;;32.65;14.93;;;;;;;;;;5115965;28;20027;-82
2022/03/26 16:56:15;;;;;;;30.27;15.32;;;;;;;;;;5116043;28;20059;-82
2022/03/26 16:58:40;;;;;;;30.23;15.63;;;;;;;;;;5116393;28;20099;-82
2022/03/26 17:01:07;;;;;;;25.13;15.55;;;;;;;;;;5116028;28;20134;-82
2022/03/26 17:03:32;;;;;;;33.08;15.00;;;;;;;;;;5114825;28;20441;-82
2022/03/26 17:06:00;;;;;;;26.30;14.88;;;;;;;;;;5116876;28;20103;-83
2022/03/26 17:08:25;;;;;;;26.80;14.77;;;;;;;;;;5116694;28;20039;-82
2022/03/26 17:10:51;;;;;;;27.92;13.95;;;;;;;;;;5120833;28;20406;-83
2022/03/26 17:13:16;;;;;;;25.85;14.43;;;;;;;;;;5115691;28;20035;-83
2022/03/26 17:15:41;;;;;;;27.05;13.63;;;;;;;;;;5115298;28;20027;-83
2022/03/26 17:18:07;;;;;;;26.45;14.25;;;;;;;;;;5114166;28;20479;-82
2022/03/26 17:20:32;;;;;;;30.42;14.07;;;;;;;;;;5114971;28;20061;-83
2022/03/26 17:22:57;;;;;;;26.13;13.63;;;;;;;;;;5116383;28;20114;-82
2022/03/26 17:25:23;;;;;;;26.35;14.30;;;;;;;;;;5113813;28;20035;-82
2022/03/26 17:27:48;;;;;;;20.63;13.40;;;;;;;;;;5115246;28;20042;-83
2022/03/26 17:30:13;;;;;;;25.95;14.15;;;;;;;;;;5115142;28;20028;-82
2022/03/26 17:32:41;;;;;;;27.17;14.65;;;;;;;;;;5114926;28;20877;-82
2022/03/26 17:35:06;;;;;;;23.10;13.43;;;;;;;;;;5113704;28;20471;-82
2022/03/26 17:37:32;;;;;;;27.65;13.75;;;;;;;;;;5113725;28;20043;-81
2022/03/26 17:39:57;;;;;;;25.85;13.60;;;;;;;;;;5114667;28;20081;-83
2022/03/26 17:42:22;;;;;;;31.08;13.73;;;;;;;;;;5113781;28;20032;-82
2022/03/26 17:44:48;;;;;;;23.27;12.90;;;;;;;;;;5115823;28;20426;-81
2022/03/26 17:47:13;;;;;;;19.98;11.57;;;;;;;;;;5118626;28;20081;-82
2022/03/26 17:49:38;;;;;;;25.05;13.63;;;;;;;;;;5094786;22;20037;-84
2022/03/26 17:52:03;;;;;;;21.50;11.45;;;;;;;;;;5056755;28;20040;-84
2022/03/26 17:54:29;;;;;;;28.92;14.60;;;;;;;;;;5056832;28;20037;-84
2022/03/26 17:56:54;;;;;;;27.15;12.82;;;;;;;;;;5055244;28;20044;-83
2022/03/26 17:59:19;;;;;;;21.60;11.65;;;;;;;;;;5057711;28;20040;-84
2022/03/26 18:01:45;;;;;;;18.10;11.27;;;;;;;;;;5056631;28;20072;-84
2022/03/26 18:04:11;;;;;;;23.50;13.20;;;;;;;;;;5055581;28;20033;-84
2022/03/26 18:06:36;;;;;;;17.98;11.05;;;;;;;;;;5056842;28;20044;-84
2022/03/26 18:09:02;;;;;;;21.75;12.18;;;;;;;;;;5055858;28;20459;-84
2022/03/26 18:11:27;;;;;;;19.50;11.05;;;;;;;;;;5056093;28;20440;-84
2022/03/26 18:13:53;;;;;;;21.50;12.18;;;;;;;;;;5055590;28;20120;-86
2022/03/26 18:16:18;;;;;;;22.33;12.75;;;;;;;;;;5058341;28;20044;-85
2022/03/26 18:18:44;;;;;;;24.15;13.27;;;;;;;;;;5039407;28;20057;-83
2022/03/26 18:21:09;;;;;;;25.38;11.60;;;;;;;;;;5056270;28;20029;-83
2022/03/26 18:23:34;;;;;;;23.63;11.85;;;;;;;;;;5055795;28;20401;-83
2022/03/26 18:25:59;;;;;;;22.00;12.25;;;;;;;;;;5056559;28;20029;-83
2022/03/26 18:28:25;;;;;;;21.58;12.38;;;;;;;;;;5055574;28;20032;-83
2022/03/26 18:30:50;;;;;;;21.50;10.82;;;;;;;;;;5056563;28;20033;-83
2022/03/26 18:33:15;;;;;;;21.17;11.40;;;;;;;;;;5057220;28;20477;-83
2022/03/26 18:35:41;;;;;;;24.95;11.65;;;;;;;;;;5056585;28;20060;-83
2022/03/26 18:38:06;;;;;;;21.80;10.65;;;;;;;;;;5056805;28;20036;-85
2022/03/26 18:40:31;;;;;;;18.70;10.68;;;;;;;;;;5058340;28;20072;-86
2022/03/26 18:42:56;;;;;;;18.30;10.98;;;;;;;;;;5056709;28;20036;-83
2022/03/26 18:45:22;;;;;;;17.85;10.05;;;;;;;;;;5056632;28;20083;-82
2022/03/26 18:47:47;;;;;;;17.90;10.52;;;;;;;;;;5056445;28;20047;-82
2022/03/26 18:50:12;;;;;;;18.45;9.60;;;;;;;;;;5054984;28;20392;-82
2022/03/26 18:52:38;;;;;;;21.83;10.57;;;;;;;;;;5055833;28;20488;-82
2022/03/26 18:55:03;;;;;;;19.60;10.82;;;;;;;;;;5056128;28;20114;-82
2022/03/26 18:57:28;;;;;;;14.45;9.40;;;;;;;;;;5056627;28;20032;-82
2022/03/26 18:59:53;;;;;;;15.82;10.20;;;;;;;;;;5056488;28;20029;-82
2022/03/26 19:02:19;;;;;;;18.30;10.48;;;;;;;;;;5055238;28;20021;-82
2022/03/26 19:04:44;;;;;;;18.35;10.27;;;;;;;;;;5056138;28;20116;-82
2022/03/26 19:07:09;;;;;;;18.67;10.65;;;;;;;;;;5056391;28;20029;-82
2022/03/26 19:09:35;;;;;;;19.15;10.30;;;;;;;;;;5056129;28;20049;-82
2022/03/26 19:12:00;;;;;;;17.48;10.43;;;;;;;;;;5058240;28;20037;-82
2022/03/26 19:14:25;;;;;;;18.38;10.02;;;;;;;;;;5055901;28;20411;-82
2022/03/26 19:16:50;;;;;;;19.13;10.20;;;;;;;;;;5056306;28;20488;-82
2022/03/26 19:19:16;;;;;;;20.63;10.82;;;;;;;;;;5055893;28;20040;-82
2022/03/26 19:21:41;;;;;;;17.55;10.02;;;;;;;;;;5056406;28;20035;-82
2022/03/26 19:24:06;;;;;;;15.90;9.88;;;;;;;;;;5055170;28;20040;-82
2022/03/26 19:26:31;;;;;;;19.80;9.73;;;;;;;;;;5055524;28;20033;-83
2022/03/26 19:31:41;;;;;;;19.80;9.70;;;;;;;;;;5056013;28;20477;-82
2022/03/26 19:34:06;;;;;;;18.83;9.88;;;;;;;;;;5055689;28;20044;-82
2022/03/26 19:36:32;;;;;;;19.58;10.85;;;;;;;;;;5054754;28;20037;-82
2022/03/26 19:38:57;;;;;;;17.65;10.32;;;;;;;;;;5055738;28;20044;-82
2022/03/26 19:41:22;;;;;;;18.25;10.48;;;;;;;;;;5055525;28;20365;-83
2022/03/26 19:43:48;;;;;;;17.90;10.43;;;;;;;;;;5054639;28;20028;-82
2022/03/26 19:46:13;;;;;;;18.70;10.75;;;;;;;;;;5054225;28;20091;-82
2022/03/26 19:48:38;;;;;;;20.05;11.23;;;;;;;;;;5055446;28;20048;-82
2022/03/26 19:51:04;;;;;;;21.35;10.77;;;;;;;;;;5055353;28;20044;-82
2022/03/26 19:53:29;;;;;;;19.38;10.38;;;;;;;;;;5055147;28;20044;-82
2022/03/26 19:55:56;;;;;;;20.73;10.85;;;;;;;;;;5055309;28;20025;-83
2022/03/26 19:58:21;;;;;;;20.00;10.73;;;;;;;;;;5055631;28;20032;-82
2022/03/26 20:00:46;;;;;;;17.85;10.38;;;;;;;;;;5054143;28;20028;-82
2022/03/26 20:03:11;;;;;;;18.15;10.27;;;;;;;;;;5055391;28;20063;-82
2022/03/26 20:05:36;;;;;;;19.17;10.80;;;;;;;;;;5055104;28;20085;-82
2022/03/26 20:08:02;;;;;;;18.55;10.73;;;;;;;;;;5055737;28;20120;-84
2022/03/26 20:10:27;;;;;;;21.05;12.30;;;;;;;;;;5054357;28;20039;-82
2022/03/26 20:12:52;;;;;;;17.88;10.77;;;;;;;;;;5054011;28;20074;-81
2022/03/26 20:15:18;;;;;;;26.67;11.68;;;;;;;;;;5054882;28;20025;-81
2022/03/26 20:20:27;;;;;;;17.77;10.23;;;;;;;;;;5054289;28;20037;-81
2022/03/26 20:22:52;;;;;;;19.15;10.02;;;;;;;;;;5055142;28;20044;-81
2022/03/26 20:25:18;;;;;;;24.52;10.82;;;;;;;;;;5054295;28;20033;-81
2022/03/26 20:27:43;;;;;;;20.20;9.70;;;;;;;;;;5054744;28;20555;-81
2022/03/26 20:30:08;;;;;;;16.15;10.05;;;;;;;;;;5052767;28;20032;-81
2022/03/26 20:32:34;;;;;;;18.33;10.50;;;;;;;;;;5053501;28;20033;-81
2022/03/26 20:34:59;;;;;;;21.80;10.85;;;;;;;;;;5052542;28;20037;-81
2022/03/26 20:37:24;;;;;;;21.73;11.85;;;;;;;;;;5054322;28;20055;-81
2022/03/26 20:39:49;;;;;;;19.42;11.00;;;;;;;;;;5054275;28;20017;-81
2022/03/26 20:42:17;;;;;;;19.30;11.73;;;;;;;;;;5054278;28;20437;-80
2022/03/26 20:44:43;;;;;;;22.02;12.40;;;;;;;;;;5053916;28;20053;-81
2022/03/26 20:47:08;;;;;;;20.02;11.70;;;;;;;;;;5053504;28;20096;-81
2022/03/26 20:49:33;;;;;;;22.35;12.27;;;;;;;;;;5053921;28;20040;-81
2022/03/26 20:51:58;;;;;;;19.77;12.18;;;;;;;;;;5052792;28;20040;-81
2022/03/26 20:54:24;;;;;;;19.48;11.32;;;;;;;;;;5052941;28;20032;-81
2022/03/26 20:56:49;;;;;;;20.40;12.10;;;;;;;;;;5054574;28;20488;-81
2022/03/26 20:59:14;;;;;;;20.52;11.45;;;;;;;;;;5054749;28;20036;-81
2022/03/26 21:01:39;;;;;;;23.98;13.02;;;;;;;;;;5054427;28;20032;-81
2022/03/26 21:04:05;;;;;;;23.38;11.75;;;;;;;;;;5053843;28;20096;-81
2022/03/26 21:06:30;;;;;;;24.20;11.75;;;;;;;;;;5053853;28;20064;-81
2022/03/26 21:08:55;;;;;;;26.20;13.10;;;;;;;;;;5053885;28;20025;-81
2022/03/26 21:11:20;;;;;;;25.05;12.18;;;;;;;;;;5053310;28;20673;-81
2022/03/26 21:13:46;;;;;;;20.85;12.68;;;;;;;;;;5052416;28;20037;-81
2022/03/26 21:16:11;;;;;;;26.15;13.93;;;;;;;;;;5052374;28;20036;-81
2022/03/26 21:18:36;;;;;;;27.08;13.23;;;;;;;;;;5053920;28;20112;-81
2022/03/26 21:21:01;;;;;;;25.90;14.23;;;;;;;;;;5053938;28;20492;-81
2022/03/26 21:23:27;;;;;;;26.77;14.93;;;;;;;;;;5058451;28;20090;-80
2022/03/26 21:25:58;;;;;;;24.70;13.18;;;;;;;;;;5057630;28;20082;-81
2022/03/26 21:28:24;;;;;;;25.60;13.57;;;;;;;;;;5058045;28;20036;-81
2022/03/26 21:30:49;;;;;;;20.75;12.88;;;;;;;;;;5056596;28;20029;-82
2022/03/26 21:33:14;;;;;;;26.20;14.40;;;;;;;;;;5058640;28;20519;-81
2022/03/26 21:35:40;;;;;;;27.75;14.55;;;;;;;;;;5056388;28;20029;-81
2022/03/26 21:38:05;;;;;;;24.55;13.40;;;;;;;;;;5057661;28;20064;-81
2022/03/26 21:40:30;;;;;;;25.52;14.90;;;;;;;;;;5057693;28;20556;-80
2022/03/26 21:42:56;;;;;;;24.55;14.35;;;;;;;;;;5057233;28;20104;-81
2022/03/26 21:45:21;;;;;;;29.88;14.38;;;;;;;;;;5057245;28;20488;-81
2022/03/26 21:47:48;;;;;;;28.05;14.63;;;;;;;;;;5057817;28;20162;-81
2022/03/26 21:50:13;;;;;;;22.02;13.88;;;;;;;;;;5055860;28;20041;-80
2022/03/26 21:52:39;;;;;;;24.30;13.88;;;;;;;;;;5039875;28;20040;-82
2022/03/26 21:55:04;;;;;;;28.73;14.80;;;;;;;;;;5057256;28;20380;-82
2022/03/26 21:57:29;;;;;;;31.35;16.05;;;;;;;;;;5057370;28;20037;-82
2022/03/26 21:59:54;;;;;;;26.50;14.75;;;;;;;;;;5057035;28;20031;-81
2022/03/26 22:02:20;;;;;;;27.55;14.77;;;;;;;;;;5056958;28;20535;-82
2022/03/26 22:04:45;;;;;;;27.55;15.63;;;;;;;;;;5055346;28;20033;-80
2022/03/26 22:07:10;;;;;;;26.05;15.65;;;;;;;;;;5055671;28;20033;-81
2022/03/26 22:09:36;;;;;;;27.65;14.50;;;;;;;;;;5056524;28;20041;-82
2022/03/26 22:12:01;;;;;;;25.08;14.38;;;;;;;;;;5056640;28;20040;-81
2022/03/26 22:14:26;;;;;;;24.15;13.32;;;;;;;;;;5055139;28;20032;-81
2022/03/26 22:16:51;;;;;;;24.48;13.55;;;;;;;;;;5055822;28;20068;-82
2022/03/26 22:19:16;;;;;;;26.45;14.35;;;;;;;;;;5055213;28;20033;-82
2022/03/26 22:21:43;;;;;;;25.80;14.40;;;;;;;;;;5055877;28;20035;-81
2022/03/26 22:24:08;;;;;;;22.02;12.98;;;;;;;;;;5056904;28;20117;-81
2022/03/26 22:26:34;;;;;;;26.17;14.02;;;;;;;;;;5056449;28;20052;-81
2022/03/26 22:28:59;;;;;;;23.40;13.43;;;;;;;;;;5056983;28;20032;-81
2022/03/26 22:31:24;;;;;;;24.25;12.68;;;;;;;;;;5056341;28;20550;-81
2022/03/26 22:33:50;;;;;;;25.70;13.63;;;;;;;;;;5056536;28;20029;-81
2022/03/26 22:36:15;;;;;;;24.58;13.45;;;;;;;;;;5056785;28;20029;-81
2022/03/26 22:38:40;;;;;;;24.13;13.25;;;;;;;;;;5056450;28;20493;-80
2022/03/26 22:41:05;;;;;;;29.00;12.95;;;;;;;;;;5056706;28;20037;-81
2022/03/26 22:43:31;;;;;;;24.48;13.43;;;;;;;;;;5056545;28;20033;-81
2022/03/26 22:45:57;;;;;;;22.88;13.52;;;;;;;;;;5055300;28;20548;-81
2022/03/26 22:48:23;;;;;;;26.00;12.77;;;;;;;;;;5055985;28;20033;-81
2022/03/26 22:50:48;;;;;;;25.08;13.13;;;;;;;;;;5055262;28;20167;-81
2022/03/26 22:53:14;;;;;;;22.27;12.82;;;;;;;;;;5056165;28;20060;-81
2022/03/26 22:55:40;;;;;;;30.45;13.25;;;;;;;;;;5055916;28;20481;-81
2022/03/26 22:58:06;;;;;;;25.63;12.85;;;;;;;;;;5055942;28;20039;-81
2022/03/26 23:00:32;;;;;;;23.90;13.10;;;;;;;;;;5056035;28;20041;-81
2022/03/26 23:02:57;;;;;;;26.42;12.88;;;;;;;;;;5055144;28;20063;-81
2022/03/26 23:05:22;;;;;;;22.65;12.88;;;;;;;;;;5055545;28;20025;-81
2022/03/26 23:07:47;;;;;;;24.20;12.60;;;;;;;;;;5054821;28;20036;-81
2022/03/26 23:10:13;;;;;;;24.25;11.82;;;;;;;;;;5055147;28;20124;-80
2022/03/26 23:12:38;;;;;;;22.80;12.30;;;;;;;;;;5056226;28;20036;-81
2022/03/26 23:15:03;;;;;;;33.30;12.85;;;;;;;;;;5055773;28;20116;-81
2022/03/26 23:17:28;;;;;;;25.75;12.40;;;;;;;;;;5055580;28;20036;-81
2022/03/26 23:19:54;;;;;;;20.15;11.55;;;;;;;;;;5055382;28;20056;-81
2022/03/26 23:22:19;;;;;;;23.42;12.57;;;;;;;;;;5054982;28;20069;-81
2022/03/26 23:24:44;;;;;;;25.17;12.38;;;;;;;;;;5055727;28;20036;-81
2022/03/26 23:27:09;;;;;;;24.38;12.88;;;;;;;;;;5054623;28;20550;-81
2022/03/26 23:29:35;;;;;;;19.65;12.15;;;;;;;;;;5055236;28;20040;-81
2022/03/26 23:32:00;;;;;;;24.00;12.63;;;;;;;;;;5055759;28;20041;-81
2022/03/26 23:34:25;;;;;;;25.88;13.43;;;;;;;;;;5055571;28;20064;-80
2022/03/26 23:36:50;;;;;;;25.38;12.55;;;;;;;;;;5055273;28;20045;-81
2022/03/26 23:39:16;;;;;;;22.02;12.60;;;;;;;;;;5055271;28;20032;-81
2022/03/26 23:41:41;;;;;;;21.08;11.98;;;;;;;;;;5055446;28;20441;-81
2022/03/26 23:44:06;;;;;;;23.27;13.00;;;;;;;;;;5054122;28;20040;-81
2022/03/26 23:46:31;;;;;;;25.27;13.25;;;;;;;;;;5055649;28;20040;-81
2022/03/26 23:48:57;;;;;;;23.15;12.40;;;;;;;;;;5054900;28;20029;-81
2022/03/26 23:51:22;;;;;;;20.80;11.30;;;;;;;;;;5054591;28;20041;-81
2022/03/26 23:53:47;;;;;;;21.40;11.98;;;;;;;;;;5055310;28;20083;-81
2022/03/26 23:56:12;;;;;;;22.55;12.77;;;;;;;;;;5055089;28;20036;-81
2022/03/26 23:58:38;;;;;;;22.50;12.00;;;;;;;;;;5054824;28;20448;-81
